Spabunker 51 — ECNA — position and weather

sailwx.info

Track history (hours):
 
Tides and Currents Weather Stations Pressure Air Temp Water Temp Dewpoint Dewpoint Depression Visibility Wind Speed Wind Dir Waves Ship Positions

Spabunker 51

Last reported at 2014-Oct-20 13:33 UTC. Time now 2014-Oct-20 18:05 UTC.
Position N 36°06' W 005°24'.

Length 84 m; draft 5.8 m.

Type: Ship (hazmat cat A). MMSI: 224322240.

Date/timePositionNaut miles runAvg speedWind from/ knotsBaromVisibWave heightAir tempDewpointWater temp
2014-Oct-20 13:33N 36°06' W 005°24'0 0.0
2014-Oct-20 12:19N 36°06' W 005°24'0 0.2
2014-Oct-20 10:32N 36°05' W 005°24'2 2.5
2014-Oct-20 09:32N 36°08' W 005°25'0 0.0
2014-Oct-20 08:33N 36°08' W 005°25'0 0.0
2014-Oct-20 07:33N 36°08' W 005°25'0 0.0
2014-Oct-20 06:32N 36°08' W 005°25'0 0.0
2014-Oct-20 05:33N 36°08' W 005°25'1 0.4
2014-Oct-20 03:32N 36°07' W 005°25'0 0.0
2014-Oct-20 01:24N 36°07' W 005°25'2 0.9
2014-Oct-19 23:27N 36°09' W 005°26'0 0.0
2014-Oct-19 22:32N 36°09' W 005°26'0 0.0
2014-Oct-19 21:23N 36°09' W 005°26'0 0.3
2014-Oct-19 20:33N 36°09' W 005°26'0 0.0
2014-Oct-19 19:30N 36°09' W 005°26'0 0.0
2014-Oct-19 17:33N 36°09' W 005°26'0 0.0
2014-Oct-19 16:33N 36°09' W 005°26'0 0.3
2014-Oct-19 15:29N 36°08' W 005°26'0 0.0
2014-Oct-19 14:33N 36°08' W 005°26'0 0.0
2014-Oct-19 13:33N 36°08' W 005°26'0 0.0
2014-Oct-19 12:33N 36°08' W 005°26'0 0.0
2014-Oct-19 11:33N 36°08' W 005°26'0 0.0
2014-Oct-19 10:33N 36°08' W 005°26'0 0.0
2014-Oct-19 09:33N 36°08' W 005°26'0 0.0
2014-Oct-19 08:33N 36°08' W 005°26'0 0.0
2014-Oct-19 07:33N 36°08' W 005°26'3 2.6
2014-Oct-19 06:30N 36°11' W 005°24'0 0.0
2014-Oct-19 05:26N 36°11' W 005°24'0 0.0
2014-Oct-19 04:31N 36°11' W 005°24'0 0.0
2014-Oct-19 03:32N 36°11' W 005°24'0 0.0
2014-Oct-19 02:32N 36°11' W 005°24'0 0.0
2014-Oct-18 22:29N 36°11' W 005°24'0 0.0
2014-Oct-18 21:28N 36°11' W 005°24'0 0.0
2014-Oct-18 20:33N 36°11' W 005°24'0 0.0
2014-Oct-18 19:33N 36°11' W 005°24'0 0.0
2014-Oct-18 18:33N 36°11' W 005°24'0 0.0
2014-Oct-18 17:33N 36°11' W 005°24'0 0.0
2014-Oct-18 16:33N 36°11' W 005°24'0 0.0
2014-Oct-18 15:33N 36°11' W 005°24'2 1.8
2014-Oct-18 14:33N 36°10' W 005°26'0 0.0
2014-Oct-18 13:33N 36°10' W 005°26'0 0.0
2014-Oct-18 12:33N 36°10' W 005°26'0 0.0
2014-Oct-18 10:25N 36°10' W 005°26'1 0.8
2014-Oct-18 09:20N 36°09' W 005°26'0 0.0
2014-Oct-18 08:33N 36°09' W 005°26'0 0.0
2014-Oct-18 05:33N 36°09' W 005°26'1 1.0
2014-Oct-18 04:33N 36°08' W 005°25'0 0.0
2014-Oct-18 03:33N 36°08' W 005°25'0 0.0
2014-Oct-18 02:33N 36°08' W 005°25'0 0.0
2014-Oct-18 01:33N 36°08' W 005°25'0 0.0
2014-Oct-18 00:33N 36°08' W 005°25'0 0.0
2014-Oct-17 23:33N 36°08' W 005°25'0 0.0
2014-Oct-17 22:33N 36°08' W 005°25'0 0.0
2014-Oct-17 21:33N 36°08' W 005°25'1 1.1
2014-Oct-17 20:32N 36°09' W 005°26'0 0.4
2014-Oct-17 19:33N 36°08' W 005°26'0 0.0
2014-Oct-17 18:33N 36°08' W 005°26'0 0.0
2014-Oct-17 16:32N 36°08' W 005°26'0 0.0
2014-Oct-17 15:33N 36°08' W 005°26'0 0.0
2014-Oct-17 14:33N 36°08' W 005°26'0 0.0
2014-Oct-17 13:33N 36°08' W 005°26'0 0.0
2014-Oct-17 10:33N 36°08' W 005°26'0 0.0
2014-Oct-17 08:32N 36°08' W 005°26'0 0.0
2014-Oct-17 05:18N 36°08' W 005°26'0 0.0
2014-Oct-17 04:33N 36°08' W 005°26'0 0.0
2014-Oct-17 03:23N 36°08' W 005°26'0 0.0
2014-Oct-17 02:33N 36°08' W 005°26'0 0.0
2014-Oct-17 01:33N 36°08' W 005°26'0 0.0
2014-Oct-17 00:33N 36°08' W 005°26'0 0.0
2014-Oct-16 23:33N 36°08' W 005°26'0 0.0
2014-Oct-16 22:33N 36°08' W 005°26'0 0.0
2014-Oct-16 21:33N 36°08' W 005°26'0 0.0
2014-Oct-16 20:23N 36°08' W 005°26'0 0.0
2014-Oct-16 19:30N 36°08' W 005°26'3 2.8
2014-Oct-16 18:33N 36°06' W 005°24'1 1.1
2014-Oct-16 17:33N 36°05' W 005°24'0 0.0
2014-Oct-16 16:33N 36°05' W 005°24'0 0.1
2014-Oct-16 15:33N 36°05' W 005°24'0 0.0
2014-Oct-16 14:33N 36°05' W 005°24'0 0.0
2014-Oct-16 13:33N 36°05' W 005°24'4 3.6
2014-Oct-16 12:34N 36°08' W 005°26'0 0.1
2014-Oct-16 11:33N 36°08' W 005°26'0 0.0
2014-Oct-16 10:33N 36°08' W 005°26'0 0.0
2014-Oct-16 09:33N 36°08' W 005°26'0 0.0
2014-Oct-16 08:20N 36°08' W 005°26'0 0.0
2014-Oct-16 07:33N 36°08' W 005°26'1 0.9
2014-Oct-16 06:21N 36°08' W 005°25'2 2.7
2014-Oct-16 05:33N 36°06' W 005°25'0 0.0
2014-Oct-16 04:33N 36°06' W 005°25'0 0.0
2014-Oct-16 03:31N 36°06' W 005°25'0 0.1
2014-Oct-16 02:33N 36°06' W 005°25'0 0.1
2014-Oct-16 01:32N 36°05' W 005°25'0 0.1
2014-Oct-16 00:33N 36°05' W 005°25'0 0.0
2014-Oct-15 23:32N 36°05' W 005°25'0 0.0
2014-Oct-15 22:33N 36°05' W 005°25'0 0.0
2014-Oct-15 21:33N 36°05' W 005°25'0 0.3
2014-Oct-15 20:33N 36°06' W 005°25'0 0.0
2014-Oct-15 19:33N 36°06' W 005°25'0 0.0
2014-Oct-15 18:33N 36°06' W 005°25'0 0.1
2014-Oct-15 17:33N 36°06' W 005°25'0 0.0
2014-Oct-15 16:33N 36°06' W 005°25'1 0.8
2014-Oct-15 15:33N 36°05' W 005°25'0 0.0
2014-Oct-15 14:33N 36°05' W 005°25'0 0.1
2014-Oct-15 13:33N 36°05' W 005°25'0 0.1
2014-Oct-15 12:33N 36°05' W 005°25'0 0.0
2014-Oct-15 11:33N 36°05' W 005°25'0 0.0
2014-Oct-15 10:33N 36°05' W 005°25'0 0.1
2014-Oct-15 09:33N 36°05' W 005°25'5 2.2
2014-Oct-15 07:19N 36°10' W 005°26'0 0.0
2014-Oct-15 06:27N 36°10' W 005°26'2 0.8
2014-Oct-15 04:03N 36°11' W 005°24'0 0.0
2014-Oct-15 03:27N 36°11' W 005°24'0 0.0
2014-Oct-15 02:30N 36°11' W 005°24'0 0.0
2014-Oct-15 01:28N 36°11' W 005°24'0 0.0
2014-Oct-15 00:33N 36°11' W 005°24'0 0.0
2014-Oct-14 23:32N 36°11' W 005°24'0 0.0
2014-Oct-14 22:33N 36°11' W 005°24'5 1.3
2014-Oct-14 18:20N 36°05' W 005°24'0 0.4
2014-Oct-14 17:33N 36°05' W 005°24'0 0.0
2014-Oct-14 16:33N 36°05' W 005°24'0 0.0
2014-Oct-14 15:33N 36°05' W 005°24'0 0.0
2014-Oct-14 14:33N 36°05' W 005°24'0 0.1
2014-Oct-14 13:33N 36°05' W 005°24'0 0.1
2014-Oct-14 12:33N 36°05' W 005°24'0 0.0
2014-Oct-14 11:33N 36°05' W 005°24'0 0.1
2014-Oct-14 10:33N 36°05' W 005°24'3 2.8
2014-Oct-14 09:29N 36°08' W 005°25'0 0.0
2014-Oct-14 08:33N 36°08' W 005°25'0 0.0
2014-Oct-14 07:33N 36°08' W 005°25'0 0.0
2014-Oct-14 06:33N 36°08' W 005°25'0 0.0
2014-Oct-14 05:33N 36°08' W 005°25'3 2.7
2014-Oct-14 04:33N 36°05' W 005°24'0 0.1
2014-Oct-14 03:33N 36°06' W 005°24'0 0.0
2014-Oct-14 02:33N 36°06' W 005°24'0 0.0
2014-Oct-14 01:33N 36°06' W 005°24'0 0.0
2014-Oct-14 00:33N 36°06' W 005°24'0 0.0
2014-Oct-13 23:33N 36°06' W 005°24'3 2.9
2014-Oct-13 22:32N 36°08' W 005°26'0 0.0
2014-Oct-13 19:27N 36°08' W 005°26'0 0.5
2014-Oct-13 18:33N 36°09' W 005°26'0 0.0
2014-Oct-13 17:26N 36°09' W 005°26'  
2014-Oct-11 13:11N 36°06' W 005°24'0 0.0
2014-Oct-11 12:26N 36°06' W 005°24'  
Track history (hours):
 
Tides and Currents Weather Stations Pressure Air Temp Water Temp Dewpoint Dewpoint Depression Visibility Wind Speed Wind Dir Waves Ship Positions

Spabunker 51

Last reported at 2014-Oct-20 13:33 UTC. Time now 2014-Oct-20 18:05 UTC.
Position N 36°06' W 005°24'.

Length 84 m; draft 5.8 m.

Type: Ship (hazmat cat A). MMSI: 224322240.

Date/timePositionNaut miles runAvg speedWind from/ knotsBaromVisibWave heightAir tempDewpointWater temp
2014-Oct-20 13:33N 36°06' W 005°24'0 0.0
2014-Oct-20 12:19N 36°06' W 005°24'0 0.2
2014-Oct-20 10:32N 36°05' W 005°24'2 2.5
2014-Oct-20 09:32N 36°08' W 005°25'0 0.0
2014-Oct-20 08:33N 36°08' W 005°25'0 0.0
2014-Oct-20 07:33N 36°08' W 005°25'0 0.0
2014-Oct-20 06:32N 36°08' W 005°25'0 0.0
2014-Oct-20 05:33N 36°08' W 005°25'1 0.4
2014-Oct-20 03:32N 36°07' W 005°25'0 0.0
2014-Oct-20 01:24N 36°07' W 005°25'2 0.9
2014-Oct-19 23:27N 36°09' W 005°26'0 0.0
2014-Oct-19 22:32N 36°09' W 005°26'0 0.0
2014-Oct-19 21:23N 36°09' W 005°26'0 0.3
2014-Oct-19 20:33N 36°09' W 005°26'0 0.0
2014-Oct-19 19:30N 36°09' W 005°26'0 0.0
2014-Oct-19 17:33N 36°09' W 005°26'0 0.0
2014-Oct-19 16:33N 36°09' W 005°26'0 0.3
2014-Oct-19 15:29N 36°08' W 005°26'0 0.0
2014-Oct-19 14:33N 36°08' W 005°26'0 0.0
2014-Oct-19 13:33N 36°08' W 005°26'0 0.0
2014-Oct-19 12:33N 36°08' W 005°26'0 0.0
2014-Oct-19 11:33N 36°08' W 005°26'0 0.0
2014-Oct-19 10:33N 36°08' W 005°26'0 0.0
2014-Oct-19 09:33N 36°08' W 005°26'0 0.0
2014-Oct-19 08:33N 36°08' W 005°26'0 0.0
2014-Oct-19 07:33N 36°08' W 005°26'3 2.6
2014-Oct-19 06:30N 36°11' W 005°24'0 0.0
2014-Oct-19 05:26N 36°11' W 005°24'0 0.0
2014-Oct-19 04:31N 36°11' W 005°24'0 0.0
2014-Oct-19 03:32N 36°11' W 005°24'0 0.0
2014-Oct-19 02:32N 36°11' W 005°24'0 0.0
2014-Oct-18 22:29N 36°11' W 005°24'0 0.0
2014-Oct-18 21:28N 36°11' W 005°24'0 0.0
2014-Oct-18 20:33N 36°11' W 005°24'0 0.0
2014-Oct-18 19:33N 36°11' W 005°24'0 0.0
2014-Oct-18 18:33N 36°11' W 005°24'0 0.0
2014-Oct-18 17:33N 36°11' W 005°24'0 0.0
2014-Oct-18 16:33N 36°11' W 005°24'0 0.0
2014-Oct-18 15:33N 36°11' W 005°24'2 1.8
2014-Oct-18 14:33N 36°10' W 005°26'0 0.0
2014-Oct-18 13:33N 36°10' W 005°26'0 0.0
2014-Oct-18 12:33N 36°10' W 005°26'0 0.0
2014-Oct-18 10:25N 36°10' W 005°26'1 0.8
2014-Oct-18 09:20N 36°09' W 005°26'0 0.0
2014-Oct-18 08:33N 36°09' W 005°26'0 0.0
2014-Oct-18 05:33N 36°09' W 005°26'1 1.0
2014-Oct-18 04:33N 36°08' W 005°25'0 0.0
2014-Oct-18 03:33N 36°08' W 005°25'0 0.0
2014-Oct-18 02:33N 36°08' W 005°25'0 0.0
2014-Oct-18 01:33N 36°08' W 005°25'0 0.0
2014-Oct-18 00:33N 36°08' W 005°25'0 0.0
2014-Oct-17 23:33N 36°08' W 005°25'0 0.0
2014-Oct-17 22:33N 36°08' W 005°25'0 0.0
2014-Oct-17 21:33N 36°08' W 005°25'1 1.1
2014-Oct-17 20:32N 36°09' W 005°26'0 0.4
2014-Oct-17 19:33N 36°08' W 005°26'0 0.0
2014-Oct-17 18:33N 36°08' W 005°26'0 0.0
2014-Oct-17 16:32N 36°08' W 005°26'0 0.0
2014-Oct-17 15:33N 36°08' W 005°26'0 0.0
2014-Oct-17 14:33N 36°08' W 005°26'0 0.0
2014-Oct-17 13:33N 36°08' W 005°26'0 0.0
2014-Oct-17 10:33N 36°08' W 005°26'0 0.0
2014-Oct-17 08:32N 36°08' W 005°26'0 0.0
2014-Oct-17 05:18N 36°08' W 005°26'0 0.0
2014-Oct-17 04:33N 36°08' W 005°26'0 0.0
2014-Oct-17 03:23N 36°08' W 005°26'0 0.0
2014-Oct-17 02:33N 36°08' W 005°26'0 0.0
2014-Oct-17 01:33N 36°08' W 005°26'0 0.0
2014-Oct-17 00:33N 36°08' W 005°26'0 0.0
2014-Oct-16 23:33N 36°08' W 005°26'0 0.0
2014-Oct-16 22:33N 36°08' W 005°26'0 0.0
2014-Oct-16 21:33N 36°08' W 005°26'0 0.0
2014-Oct-16 20:23N 36°08' W 005°26'0 0.0
2014-Oct-16 19:30N 36°08' W 005°26'3 2.8
2014-Oct-16 18:33N 36°06' W 005°24'1 1.1
2014-Oct-16 17:33N 36°05' W 005°24'0 0.0
2014-Oct-16 16:33N 36°05' W 005°24'0 0.1
2014-Oct-16 15:33N 36°05' W 005°24'0 0.0
2014-Oct-16 14:33N 36°05' W 005°24'0 0.0
2014-Oct-16 13:33N 36°05' W 005°24'4 3.6
2014-Oct-16 12:34N 36°08' W 005°26'0 0.1
2014-Oct-16 11:33N 36°08' W 005°26'0 0.0
2014-Oct-16 10:33N 36°08' W 005°26'0 0.0
2014-Oct-16 09:33N 36°08' W 005°26'0 0.0
2014-Oct-16 08:20N 36°08' W 005°26'0 0.0
2014-Oct-16 07:33N 36°08' W 005°26'1 0.9
2014-Oct-16 06:21N 36°08' W 005°25'2 2.7
2014-Oct-16 05:33N 36°06' W 005°25'0 0.0
2014-Oct-16 04:33N 36°06' W 005°25'0 0.0
2014-Oct-16 03:31N 36°06' W 005°25'0 0.1
2014-Oct-16 02:33N 36°06' W 005°25'0 0.1
2014-Oct-16 01:32N 36°05' W 005°25'0 0.1
2014-Oct-16 00:33N 36°05' W 005°25'0 0.0
2014-Oct-15 23:32N 36°05' W 005°25'0 0.0
2014-Oct-15 22:33N 36°05' W 005°25'0 0.0
2014-Oct-15 21:33N 36°05' W 005°25'0 0.3
2014-Oct-15 20:33N 36°06' W 005°25'0 0.0
2014-Oct-15 19:33N 36°06' W 005°25'0 0.0
2014-Oct-15 18:33N 36°06' W 005°25'0 0.1
2014-Oct-15 17:33N 36°06' W 005°25'0 0.0
2014-Oct-15 16:33N 36°06' W 005°25'1 0.8
2014-Oct-15 15:33N 36°05' W 005°25'0 0.0
2014-Oct-15 14:33N 36°05' W 005°25'0 0.1
2014-Oct-15 13:33N 36°05' W 005°25'0 0.1
2014-Oct-15 12:33N 36°05' W 005°25'0 0.0
2014-Oct-15 11:33N 36°05' W 005°25'0 0.0
2014-Oct-15 10:33N 36°05' W 005°25'0 0.1
2014-Oct-15 09:33N 36°05' W 005°25'5 2.2
2014-Oct-15 07:19N 36°10' W 005°26'0 0.0
2014-Oct-15 06:27N 36°10' W 005°26'2 0.8
2014-Oct-15 04:03N 36°11' W 005°24'0 0.0
2014-Oct-15 03:27N 36°11' W 005°24'0 0.0
2014-Oct-15 02:30N 36°11' W 005°24'0 0.0
2014-Oct-15 01:28N 36°11' W 005°24'0 0.0
2014-Oct-15 00:33N 36°11' W 005°24'0 0.0
2014-Oct-14 23:32N 36°11' W 005°24'0 0.0
2014-Oct-14 22:33N 36°11' W 005°24'5 1.3
2014-Oct-14 18:20N 36°05' W 005°24'0 0.4
2014-Oct-14 17:33N 36°05' W 005°24'0 0.0
2014-Oct-14 16:33N 36°05' W 005°24'0 0.0
2014-Oct-14 15:33N 36°05' W 005°24'0 0.0
2014-Oct-14 14:33N 36°05' W 005°24'0 0.1
2014-Oct-14 13:33N 36°05' W 005°24'0 0.1
2014-Oct-14 12:33N 36°05' W 005°24'0 0.0
2014-Oct-14 11:33N 36°05' W 005°24'0 0.1
2014-Oct-14 10:33N 36°05' W 005°24'3 2.8
2014-Oct-14 09:29N 36°08' W 005°25'0 0.0
2014-Oct-14 08:33N 36°08' W 005°25'0 0.0
2014-Oct-14 07:33N 36°08' W 005°25'0 0.0
2014-Oct-14 06:33N 36°08' W 005°25'0 0.0
2014-Oct-14 05:33N 36°08' W 005°25'3 2.7
2014-Oct-14 04:33N 36°05' W 005°24'0 0.1
2014-Oct-14 03:33N 36°06' W 005°24'0 0.0
2014-Oct-14 02:33N 36°06' W 005°24'0 0.0
2014-Oct-14 01:33N 36°06' W 005°24'0 0.0
2014-Oct-14 00:33N 36°06' W 005°24'0 0.0
2014-Oct-13 23:33N 36°06' W 005°24'3 2.9
2014-Oct-13 22:32N 36°08' W 005°26'0 0.0
2014-Oct-13 19:27N 36°08' W 005°26'0 0.5
2014-Oct-13 18:33N 36°09' W 005°26'0 0.0
2014-Oct-13 17:26N 36°09' W 005°26'  
2014-Oct-11 13:11N 36°06' W 005°24'0 0.0
2014-Oct-11 12:26N 36°06' W 005°24'  

Dump ship's entire track history